Time;durP1;ratioP1;P1;durP2;ratioP2;P2;SDS_P1;SDS_P2;PMS_P1;PMS_P2;Temp;Humidity;BMP_temperature;BMP_pressure;BME280_temperature;BME280_humidity;BME280_pressure;Samples;Min_cycle;Max_cycle;Signal;HPM_P1;HPM_P2
2023/10/29 00:01:57;;;;;;;11.00;5.60;;;;;;;6.22;87.59;95251.83;106673;1274;22537;-83
2023/10/29 00:04:26;;;;;;;11.00;6.40;;;;;;;6.26;87.36;95256.33;106737;1275;24275;-83
2023/10/29 00:06:54;;;;;;;10.50;5.40;;;;;;;6.29;87.00;95256.64;106702;1274;24224;-84
2023/10/29 00:09:22;;;;;;;10.90;6.60;;;;;;;6.32;86.58;95259.95;106667;1274;22519;-83
2023/10/29 00:11:51;;;;;;;5.50;3.50;;;;;;;6.30;85.85;95259.26;106653;1275;24247;-83
2023/10/29 00:14:19;;;;;;;6.80;3.60;;;;;;;6.32;86.65;95257.67;106664;1275;22523;-84
2023/10/29 00:16:49;;;;;;;3.10;2.30;;;;;;;6.37;86.24;95259.55;106642;1275;22767;-84
2023/10/29 00:19:18;;;;;;;3.00;1.70;;;;;;;6.37;86.21;95262.35;106766;1274;24221;-84
2023/10/29 00:21:47;;;;;;;6.00;3.90;;;;;;;6.45;86.88;95261.07;106752;1274;24901;-84
2023/10/29 00:24:15;;;;;;;7.00;1.60;;;;;;;6.46;86.23;95265.77;106596;1275;22636;-83
2023/10/29 00:26:43;;;;;;;9.10;4.10;;;;;;;6.37;85.50;95269.34;106657;1275;24368;-83
2023/10/29 00:29:11;;;;;;;8.20;4.10;;;;;;;6.37;85.88;95271.09;106700;1274;22527;-84
2023/10/29 00:31:39;;;;;;;5.50;3.40;;;;;;;6.41;86.19;95262.66;106626;1274;25383;-83
2023/10/29 00:34:08;;;;;;;6.70;4.00;;;;;;;6.39;85.85;95264.78;106587;1274;25344;-84
2023/10/29 00:36:36;;;;;;;6.00;3.50;;;;;;;6.39;86.45;95270.55;106597;1274;22523;-83
2023/10/29 00:39:04;;;;;;;11.50;5.00;;;;;;;6.36;85.72;95270.74;106665;1262;24218;-84
2023/10/29 00:41:32;;;;;;;6.20;4.20;;;;;;;6.33;85.77;95285.27;106645;1275;24320;-83
2023/10/29 00:44:00;;;;;;;15.10;4.80;;;;;;;6.31;85.35;95280.39;106720;1274;22524;-84
2023/10/29 00:46:30;;;;;;;10.90;4.20;;;;;;;6.29;85.87;95282.84;106701;1274;22538;-84
2023/10/29 00:48:59;;;;;;;6.30;3.00;;;;;;;6.32;86.11;95285.29;106656;1265;24347;-83
2023/10/29 00:51:27;;;;;;;3.90;1.40;;;;;;;6.34;85.98;95282.13;106597;1262;25509;-84
2023/10/29 00:53:55;;;;;;;3.60;1.20;;;;;;;6.37;86.19;95288.21;106639;1274;24341;-84
2023/10/29 00:56:24;;;;;;;2.60;1.10;;;;;;;6.39;86.28;95290.64;106750;1274;25438;-84
2023/10/29 00:58:53;;;;;;;3.40;1.10;;;;;;;6.37;87.01;95296.25;106626;1274;25519;-84
2023/10/29 01:01:21;;;;;;;3.20;1.50;;;;;;;6.32;86.70;95297.33;106869;1274;22661;-84
2023/10/29 01:03:49;;;;;;;3.60;2.30;;;;;;;6.25;86.57;95301.92;106828;1274;24491;-83
2023/10/29 01:06:18;;;;;;;6.70;3.20;;;;;;;6.22;86.74;95299.48;106749;1274;22650;-84
2023/10/29 01:08:46;;;;;;;4.60;2.50;;;;;;;6.13;86.25;95304.44;106931;1274;22554;-84
2023/10/29 01:11:15;;;;;;;4.70;2.50;;;;;;;6.09;86.62;95304.29;106622;1274;22531;-84
2023/10/29 01:13:44;;;;;;;6.80;3.20;;;;;;;6.03;86.40;95298.91;106667;1274;24250;-84
2023/10/29 01:16:12;;;;;;;5.20;1.90;;;;;;;5.99;86.76;95303.13;106582;1274;22642;-84
2023/10/29 01:18:41;;;;;;;8.10;1.90;;;;;;;5.95;87.47;95302.98;106757;1274;24285;-84
2023/10/29 01:21:10;;;;;;;3.20;2.20;;;;;;;5.93;87.02;95305.05;106719;1274;22761;-84
2023/10/29 01:23:38;;;;;;;5.10;2.10;;;;;;;5.90;87.09;95305.60;106433;1274;25998;-84
2023/10/29 01:26:06;;;;;;;7.60;3.70;;;;;;;5.87;87.06;95309.61;106683;1274;22771;-84
2023/10/29 01:28:34;;;;;;;10.80;4.20;;;;;;;5.83;86.91;95311.90;106807;1274;22617;-84
2023/10/29 01:31:03;;;;;;;6.00;3.10;;;;;;;5.79;86.96;95314.19;106793;1274;22543;-84
2023/10/29 01:33:31;;;;;;;3.50;1.80;;;;;;;5.80;86.75;95313.31;106678;1274;24277;-84
2023/10/29 01:35:59;;;;;;;1.70;1.10;;;;;;;5.89;87.52;95313.96;106730;1274;22645;-84
2023/10/29 01:38:28;;;;;;;8.40;3.00;;;;;;;5.91;88.03;95312.39;106824;1275;22644;-83
2023/10/29 01:40:56;;;;;;;8.90;6.20;;;;;;;5.93;88.76;95312.40;106667;1274;22524;-84
2023/10/29 01:43:24;;;;;;;6.10;3.80;;;;;;;5.95;88.21;95313.98;106690;1274;23248;-84
2023/10/29 01:45:53;;;;;;;9.20;3.80;;;;;;;5.96;88.48;95314.66;106763;1274;25346;-84
2023/10/29 01:48:23;;;;;;;4.50;2.60;;;;;;;5.96;88.02;95315.18;106683;1274;22649;-84
2023/10/29 01:50:52;;;;;;;4.60;1.70;;;;;;;5.93;87.92;95317.27;106782;1274;25359;-83
2023/10/29 01:53:21;;;;;;;9.50;4.80;;;;;;;5.94;87.95;95321.47;106731;1274;22526;-84
2023/10/29 01:55:49;;;;;;;7.10;4.70;;;;;;;5.87;86.38;95323.23;106792;1274;25254;-84
2023/10/29 01:58:17;;;;;;;6.20;4.40;;;;;;;5.83;86.57;95322.71;106733;1273;22549;-84
2023/10/29 02:00:46;;;;;;;9.20;4.20;;;;;;;5.80;86.16;95319.93;106717;1274;22573;-84
2023/10/29 02:03:14;;;;;;;9.50;4.80;;;;;;;5.73;86.15;95322.60;106781;1274;23913;-84
2023/10/29 02:05:42;;;;;;;7.10;3.20;;;;;;;5.73;86.47;95322.77;106797;1275;22578;-84
2023/10/29 02:08:10;;;;;;;6.50;3.90;;;;;;;5.78;86.65;95321.00;106465;1275;24285;-83
2023/10/29 02:10:38;;;;;;;4.80;2.90;;;;;;;5.77;86.74;95316.98;106725;1274;22535;-83
2023/10/29 02:13:07;;;;;;;2.80;1.60;;;;;;;5.77;86.21;95315.94;106718;1275;25658;-83
2023/10/29 02:15:35;;;;;;;5.40;3.70;;;;;;;5.71;86.63;95320.33;106696;1274;22526;-83
2023/10/29 02:18:03;;;;;;;9.00;3.60;;;;;;;5.65;86.92;95324.55;106689;1274;23011;-83
2023/10/29 02:20:32;;;;;;;4.20;2.50;;;;;;;5.62;86.68;95332.05;106674;1274;24210;-83
2023/10/29 02:23:00;;;;;;;7.10;4.50;;;;;;;5.60;87.05;95328.39;106636;1275;22749;-84
2023/10/29 02:25:28;;;;;;;8.40;5.40;;;;;;;5.57;86.52;95324.92;106659;1275;22984;-84
2023/10/29 02:27:56;;;;;;;12.80;6.70;;;;;;;5.53;86.61;95330.52;106635;1274;22564;-84
2023/10/29 02:30:24;;;;;;;7.20;4.70;;;;;;;5.52;87.17;95329.99;106586;1274;22680;-84
2023/10/29 02:32:52;;;;;;;6.80;5.00;;;;;;;5.50;86.94;95327.04;106700;1274;24289;-84
2023/10/29 02:35:21;;;;;;;4.90;3.10;;;;;;;5.47;87.48;95325.13;106629;1274;24321;-85
2023/10/29 02:37:49;;;;;;;5.30;2.30;;;;;;;5.47;87.79;95333.15;106602;1275;22551;-84
2023/10/29 02:40:19;;;;;;;4.80;2.30;;;;;;;5.47;88.33;95340.65;106570;1274;25470;-85
2023/10/29 02:42:47;;;;;;;7.20;2.90;;;;;;;5.48;87.94;95341.19;106607;1268;25524;-84
2023/10/29 02:45:15;;;;;;;8.00;4.80;;;;;;;5.51;88.11;95346.05;106806;1275;25253;-84
2023/10/29 02:47:43;;;;;;;6.70;5.00;;;;;;;5.51;87.74;95350.58;106951;1275;25420;-84
2023/10/29 02:50:11;;;;;;;9.50;5.00;;;;;;;5.52;87.93;95351.27;107081;1274;24304;-85
2023/10/29 02:52:39;;;;;;;8.20;2.80;;;;;;;5.56;87.85;95351.27;106854;1275;22737;-85
2023/10/29 02:55:07;;;;;;;5.40;2.20;;;;;;;5.61;88.43;95350.04;107111;1275;23161;-85
2023/10/29 02:57:36;;;;;;;3.60;1.40;;;;;;;5.64;88.05;95346.55;107091;1275;25515;-85
2023/10/29 03:00:04;;;;;;;2.60;1.50;;;;;;;5.71;88.81;95352.61;107109;1275;24231;-85
2023/10/29 03:02:32;;;;;;;4.00;1.40;;;;;;;5.79;89.13;95360.61;107169;1275;22549;-85
2023/10/29 03:05:01;;;;;;;1.20;0.80;;;;;;;5.82;88.49;95362.53;106880;1275;25421;-85
2023/10/29 03:07:30;;;;;;;2.80;1.20;;;;;;;5.85;89.07;95370.55;106881;1275;22540;-85
2023/10/29 03:09:59;;;;;;;2.60;1.50;;;;;;;5.84;88.38;95373.34;106888;1273;22652;-85
2023/10/29 03:12:27;;;;;;;4.80;2.20;;;;;;;5.82;88.30;95370.54;106886;1275;22743;-86
2023/10/29 03:14:55;;;;;;;5.00;2.10;;;;;;;5.87;88.39;95373.67;106989;1275;22821;-85
2023/10/29 03:17:23;;;;;;;1.80;1.10;;;;;;;5.91;88.08;95372.27;106483;1275;24347;-85
2023/10/29 03:19:51;;;;;;;4.50;1.80;;;;;;;5.94;88.19;95372.43;106670;1275;22527;-85
2023/10/29 03:22:19;;;;;;;3.00;1.10;;;;;;;6.04;88.29;95376.08;106722;1265;24989;-85
2023/10/29 03:24:47;;;;;;;1.40;1.10;;;;;;;6.09;88.13;95375.17;106667;1254;24231;-85
2023/10/29 03:27:16;;;;;;;3.70;1.00;;;;;;;6.10;87.52;95377.27;106829;1275;22584;-85
2023/10/29 03:29:44;;;;;;;5.30;0.60;;;;;;;6.13;87.86;95377.41;106869;1275;24468;-86
2023/10/29 03:32:13;;;;;;;2.20;0.70;;;;;;;6.18;87.97;95383.52;106519;1275;22516;-86
2023/10/29 03:34:41;;;;;;;2.90;0.50;;;;;;;6.22;88.00;95386.83;106693;1275;24244;-85
2023/10/29 03:37:09;;;;;;;6.10;1.70;;;;;;;6.28;88.02;95386.45;106759;1262;24324;-86
2023/10/29 03:39:37;;;;;;;2.80;1.30;;;;;;;6.29;87.41;95391.33;106708;1275;22651;-85
2023/10/29 03:42:07;;;;;;;4.50;1.80;;;;;;;6.32;87.26;95390.97;106696;1275;25359;-86
2023/10/29 03:44:35;;;;;;;5.00;2.10;;;;;;;6.29;86.44;95392.89;106728;1275;25249;-86
2023/10/29 03:47:04;;;;;;;4.20;2.10;;;;;;;6.17;85.85;95393.65;106681;1275;22584;-86
2023/10/29 03:49:32;;;;;;;4.30;1.60;;;;;;;6.07;85.96;95396.67;106802;1274;24398;-85
2023/10/29 03:52:00;;;;;;;3.00;1.40;;;;;;;6.00;86.44;95402.46;106740;1275;23015;-85
2023/10/29 03:54:29;;;;;;;13.20;8.50;;;;;;;5.96;87.31;95405.45;106833;1275;22601;-86
2023/10/29 03:56:57;;;;;;;20.00;10.60;;;;;;;5.88;87.03;95408.06;106852;1275;22772;-86
2023/10/29 03:59:25;;;;;;;28.20;14.70;;;;;;;5.78;87.04;95406.52;106699;1275;24286;-86
2023/10/29 04:01:53;;;;;;;11.40;6.40;;;;;;;5.74;87.18;95406.01;106741;1275;25230;-86
2023/10/29 04:04:21;;;;;;;7.90;3.70;;;;;;;5.70;87.58;95404.10;106717;1275;23937;-86
2023/10/29 04:06:49;;;;;;;7.50;2.60;;;;;;;5.67;87.46;95402.18;106729;1274;22523;-86
2023/10/29 04:09:18;;;;;;;7.20;1.90;;;;;;;5.60;87.49;95404.13;106618;1275;22516;-85
2023/10/29 04:11:46;;;;;;;3.40;2.00;;;;;;;5.59;87.97;95411.46;106895;1275;26684;-86
2023/10/29 04:14:14;;;;;;;3.40;2.10;;;;;;;5.55;88.18;95410.41;106754;1275;22562;-86
2023/10/29 04:16:43;;;;;;;6.40;2.70;;;;;;;5.49;88.16;95418.11;106761;1275;22538;-86
2023/10/29 04:19:11;;;;;;;5.30;2.80;;;;;;;5.45;87.81;95422.30;106846;1275;24389;-86
2023/10/29 04:21:39;;;;;;;4.10;1.40;;;;;;;5.48;88.05;95423.70;106709;1275;22746;-86
2023/10/29 04:24:08;;;;;;;7.90;1.60;;;;;;;5.53;88.27;95433.98;106738;1275;23914;-86
2023/10/29 04:26:36;;;;;;;32.90;10.60;;;;;;;5.55;88.46;95437.11;106853;1275;25429;-86
2023/10/29 04:29:04;;;;;;;28.20;11.40;;;;;;;5.52;88.42;95437.81;106560;1275;22530;-86
2023/10/29 04:31:32;;;;;;;14.90;7.00;;;;;;;5.49;87.85;95436.60;106741;1274;22652;-86
2023/10/29 04:34:01;;;;;;;8.60;3.80;;;;;;;5.45;88.13;95443.05;106833;1274;24382;-86
2023/10/29 04:36:29;;;;;;;8.50;3.80;;;;;;;5.44;88.47;95445.33;106762;1274;22533;-86
2023/10/29 04:38:57;;;;;;;5.40;3.40;;;;;;;5.44;89.30;95442.53;106735;1275;23645;-87
2023/10/29 04:41:25;;;;;;;6.90;3.80;;;;;;;5.45;89.63;95444.28;106697;1274;25382;-86
2023/10/29 04:43:53;;;;;;;5.70;3.50;;;;;;;5.40;88.12;95446.73;106752;1275;24387;-86
2023/10/29 04:46:21;;;;;;;9.90;4.60;;;;;;;5.34;87.58;95450.58;106673;1253;24296;-86
2023/10/29 04:48:49;;;;;;;85.30;36.60;;;;;;;5.33;88.62;95450.06;106687;1274;22664;-87
2023/10/29 04:51:17;;;;;;;62.00;26.20;;;;;;;5.43;89.22;95441.31;106673;1275;22533;-86
2023/10/29 04:53:45;;;;;;;55.40;25.20;;;;;;;5.51;89.08;95434.49;106863;1263;26679;-87
2023/10/29 04:56:13;;;;;;;53.00;25.50;;;;;;;5.57;88.90;95439.55;106642;1275;25266;-86
2023/10/29 04:58:42;;;;;;;9.30;5.20;;;;;;;5.65;89.22;95442.52;106482;1275;25307;-86
2023/10/29 05:01:10;;;;;;;6.90;3.50;;;;;;;5.76;89.15;95447.54;106775;1274;24256;-85
2023/10/29 05:03:38;;;;;;;42.60;14.70;;;;;;;5.74;88.69;95450.68;106704;1275;22534;-84
2023/10/29 05:06:06;;;;;;;35.60;14.70;;;;;;;5.69;88.87;95452.98;106811;1274;22572;-85
2023/10/29 05:08:34;;;;;;;37.50;19.20;;;;;;;5.67;88.24;95454.55;106712;1275;22536;-86
2023/10/29 05:11:02;;;;;;;40.10;23.00;;;;;;;5.72;88.57;95461.16;106651;1265;24281;-86
2023/10/29 05:13:31;;;;;;;51.10;26.90;;;;;;;5.76;88.19;95453.30;106882;1275;25472;-86
2023/10/29 05:16:00;;;;;;;45.40;22.60;;;;;;;5.75;88.04;95451.04;107108;1271;24363;-85
2023/10/29 05:18:28;;;;;;;52.60;25.00;;;;;;;5.80;89.14;95453.11;106962;1274;22522;-86
2023/10/29 05:20:56;;;;;;;44.30;21.30;;;;;;;5.89;89.49;95456.23;106891;1274;22552;-86
2023/10/29 05:23:27;;;;;;;36.10;18.00;;;;;;;5.90;89.45;95462.17;106735;1274;22520;-86
2023/10/29 05:25:56;;;;;;;27.00;13.90;;;;;;;5.97;89.58;95459.05;106674;1275;22782;-86
2023/10/29 05:28:25;;;;;;;22.20;12.40;;;;;;;6.02;89.60;95460.95;106688;1274;24228;-86
2023/10/29 05:30:53;;;;;;;35.40;16.80;;;;;;;6.07;89.97;95461.10;106526;1275;25258;-86
2023/10/29 05:33:21;;;;;;;64.90;30.40;;;;;;;6.10;89.72;95457.77;106689;1274;24356;-86
2023/10/29 05:35:49;;;;;;;52.70;27.50;;;;;;;6.13;89.54;95462.47;106816;1275;24382;-86
2023/10/29 05:38:17;;;;;;;60.00;30.90;;;;;;;6.20;89.70;95459.31;106515;1274;22537;-86
2023/10/29 05:40:45;;;;;;;43.40;22.80;;;;;;;6.31;89.59;95464.70;106725;1274;22522;-86
2023/10/29 05:43:13;;;;;;;40.70;19.70;;;;;;;6.35;88.95;95467.12;106692;1274;24281;-86
2023/10/29 05:45:41;;;;;;;24.40;12.10;;;;;;;6.37;88.90;95467.80;106694;1274;22537;-86
2023/10/29 05:48:09;;;;;;;29.30;17.00;;;;;;;6.44;88.95;95474.59;106681;1275;25305;-85
2023/10/29 05:50:39;;;;;;;13.60;6.80;;;;;;;6.44;88.51;95474.23;106831;1274;22549;-86
2023/10/29 05:53:07;;;;;;;24.90;12.70;;;;;;;6.45;89.03;95474.40;106691;1275;22529;-86
2023/10/29 05:55:35;;;;;;;52.50;27.00;;;;;;;6.45;88.68;95473.88;106667;1275;24346;-84
2023/10/29 05:58:03;;;;;;;30.00;17.50;;;;;;;6.46;89.01;95473.35;106550;1275;24261;-86
2023/10/29 06:00:31;;;;;;;25.10;14.20;;;;;;;6.53;88.93;95479.63;106697;1264;25435;-86
2023/10/29 06:03:01;;;;;;;28.60;16.10;;;;;;;6.57;88.29;95487.46;106769;1271;22558;-87
2023/10/29 06:05:29;;;;;;;22.40;14.60;;;;;;;6.56;87.96;95484.67;106668;1275;22519;-86
2023/10/29 06:07:57;;;;;;;25.80;16.00;;;;;;;6.54;88.00;95484.15;106690;1274;22526;-86
2023/10/29 06:10:25;;;;;;;16.30;9.70;;;;;;;6.59;88.22;95485.88;106682;1275;24260;-86
2023/10/29 06:12:54;;;;;;;16.50;9.20;;;;;;;6.64;88.27;95486.73;106705;1274;25558;-85
2023/10/29 06:15:22;;;;;;;11.10;5.90;;;;;;;6.71;88.85;95490.18;106722;1275;24905;-84
2023/10/29 06:17:50;;;;;;;32.80;18.90;;;;;;;6.76;89.81;95493.83;106805;1275;24065;-84
2023/10/29 06:20:20;;;;;;;40.60;21.80;;;;;;;6.78;89.73;95490.15;106671;1275;24461;-84
2023/10/29 06:22:49;;;;;;;29.70;17.90;;;;;;;6.79;89.27;95484.54;106660;1275;25452;-84
2023/10/29 06:25:17;;;;;;;64.80;37.00;;;;;;;6.82;90.17;95487.15;106549;1275;22533;-83
2023/10/29 06:27:45;;;;;;;54.30;29.30;;;;;;;6.88;90.14;95486.77;106679;1275;25434;-84
2023/10/29 06:30:14;;;;;;;46.30;26.90;;;;;;;6.97;90.06;95486.00;106612;1275;25270;-86
2023/10/29 06:32:42;;;;;;;39.00;22.80;;;;;;;7.06;90.06;95488.75;106496;1275;22533;-85
2023/10/29 06:35:12;;;;;;;36.50;23.30;;;;;;;7.16;90.19;95487.80;106538;1275;24228;-85
2023/10/29 06:37:40;;;;;;;34.30;22.30;;;;;;;7.28;89.96;95491.58;106704;1274;22655;-85
2023/10/29 06:40:08;;;;;;;26.20;19.10;;;;;;;7.35;89.88;95490.45;106620;1275;23899;-86
2023/10/29 06:42:38;;;;;;;22.50;15.30;;;;;;;7.40;89.49;95495.16;106762;1274;24077;-86
2023/10/29 06:45:06;;;;;;;21.10;14.20;;;;;;;7.45;89.68;95499.14;106807;1275;22538;-86
2023/10/29 06:47:34;;;;;;;19.80;11.40;;;;;;;7.52;89.66;95502.58;106662;1274;22531;-86
2023/10/29 06:50:03;;;;;;;15.50;10.20;;;;;;;7.57;89.54;95497.65;106500;1275;22531;-86
2023/10/29 06:52:31;;;;;;;19.30;11.90;;;;;;;7.63;89.43;95496.71;106760;1275;23284;-86
2023/10/29 06:54:59;;;;;;;17.00;11.30;;;;;;;7.69;90.03;95496.83;106913;1275;26599;-86
2023/10/29 06:57:27;;;;;;;16.90;10.70;;;;;;;7.81;90.56;95490.07;107054;1275;22571;-84
2023/10/29 06:59:56;;;;;;;14.60;9.70;;;;;;;7.98;91.42;95492.01;107170;1275;25307;-86
2023/10/29 07:02:24;;;;;;;41.40;24.90;;;;;;;8.18;91.44;95496.87;107066;1275;25920;-85
2023/10/29 07:04:53;;;;;;;37.10;29.70;;;;;;;8.34;91.06;95500.20;106883;1275;24271;-84
2023/10/29 07:07:21;;;;;;;38.20;23.90;;;;;;;8.43;90.77;95500.83;107063;1274;25373;-85
2023/10/29 07:09:49;;;;;;;22.10;15.20;;;;;;;8.57;90.98;95499.96;106931;1275;24206;-85
2023/10/29 07:12:18;;;;;;;32.40;23.90;;;;;;;8.64;90.27;95499.00;107036;1274;22511;-84
2023/10/29 07:14:46;;;;;;;43.30;38.60;;;;;;;8.71;89.92;95499.09;107096;1275;22523;-85
2023/10/29 07:17:15;;;;;;;20.50;13.70;;;;;;;8.78;90.41;95499.52;107032;1275;23152;-84
2023/10/29 07:19:43;;;;;;;21.80;13.70;;;;;;;8.83;89.91;95494.02;106940;1275;25315;-84
2023/10/29 07:22:11;;;;;;;15.30;9.40;;;;;;;8.91;89.95;95489.88;107179;1271;22610;-84
2023/10/29 07:24:40;;;;;;;24.60;17.10;;;;;;;8.92;89.98;95492.48;107039;1271;22582;-84
2023/10/29 07:27:08;;;;;;;21.50;12.00;;;;;;;8.92;90.01;95493.20;107105;1275;22641;-83
2023/10/29 07:29:37;;;;;;;10.60;8.50;;;;;;;9.07;90.82;95494.02;107137;1265;25230;-85
2023/10/29 07:32:05;;;;;;;9.10;7.10;;;;;;;9.21;90.69;95495.75;106750;1275;24218;-83
2023/10/29 07:34:34;;;;;;;11.60;7.90;;;;;;;9.24;90.33;95494.31;106723;1275;24385;-83
2023/10/29 07:37:02;;;;;;;12.40;7.70;;;;;;;9.41;91.27;95493.16;106707;1259;24476;-83
2023/10/29 07:39:30;;;;;;;12.80;7.90;;;;;;;9.63;91.50;95491.92;106664;1271;22520;-83
2023/10/29 07:41:58;;;;;;;7.60;5.70;;;;;;;9.94;91.86;95488.77;106718;1275;24363;-82
2023/10/29 07:44:27;;;;;;;8.20;4.00;;;;;;;10.19;91.66;95489.71;106715;1275;23152;-82
2023/10/29 07:46:55;;;;;;;8.20;5.90;;;;;;;10.41;91.25;95491.98;106694;1275;22539;-82
2023/10/29 07:49:24;;;;;;;8.80;3.40;;;;;;;10.61;91.39;95489.28;106703;1275;22542;-82
2023/10/29 07:51:52;;;;;;;5.30;3.30;;;;;;;10.78;90.10;95491.92;106782;1275;22528;-81
2023/10/29 07:54:20;;;;;;;7.40;2.80;;;;;;;10.85;89.85;95488.27;107024;1275;22532;-81
2023/10/29 07:56:49;;;;;;;3.60;2.40;;;;;;;10.99;89.93;95492.02;106882;1275;229036;-81
2023/10/29 07:59:17;;;;;;;5.10;2.90;;;;;;;11.16;89.64;95480.35;107107;1275;25344;-80
2023/10/29 08:01:45;;;;;;;6.10;3.40;;;;;;;11.26;89.53;95478.56;106750;1275;22525;-80
2023/10/29 08:04:13;;;;;;;4.30;2.70;;;;;;;11.48;89.49;95479.44;106703;1275;25268;-80
2023/10/29 08:06:41;;;;;;;4.00;2.60;;;;;;;11.70;88.89;95478.73;106703;1275;23913;-81
2023/10/29 08:09:11;;;;;;;5.10;2.30;;;;;;;11.82;87.82;95478.27;106668;1275;24489;-80
2023/10/29 08:11:41;;;;;;;5.60;2.30;;;;;;;12.04;87.42;95487.06;106694;1274;22527;-80
2023/10/29 08:14:09;;;;;;;5.90;3.30;;;;;;;12.30;86.85;95490.97;106636;1265;22658;-80
2023/10/29 08:16:37;;;;;;;7.50;3.00;;;;;;;12.46;86.65;95490.00;106732;1275;22511;-80
2023/10/29 08:19:06;;;;;;;4.90;2.20;;;;;;;12.66;86.93;95490.85;107047;1275;24236;-81
2023/10/29 08:21:34;;;;;;;4.90;2.80;;;;;;;12.70;84.98;95489.69;107091;1275;24397;-80
2023/10/29 08:24:02;;;;;;;5.50;2.80;;;;;;;12.74;85.12;95497.33;107228;1271;22519;-80
2023/10/29 08:26:32;;;;;;;4.60;2.30;;;;;;;12.91;85.28;95498.09;107065;1275;25027;-79
2023/10/29 08:29:00;;;;;;;7.50;2.40;;;;;;;13.19;84.09;95480.47;107029;1272;22523;-80
2023/10/29 08:31:28;;;;;;;11.70;4.20;;;;;;;13.49;84.37;95494.05;106934;1275;22542;-81
2023/10/29 08:33:56;;;;;;;6.10;3.10;;;;;;;13.80;83.75;95497.30;107042;1274;22531;-81
2023/10/29 08:36:25;;;;;;;6.40;2.20;;;;;;;14.16;84.51;95500.70;107077;1275;24271;-81
2023/10/29 08:38:53;;;;;;;4.90;2.10;;;;;;;14.47;83.20;95505.48;107066;1275;22541;-81
2023/10/29 08:41:21;;;;;;;4.90;2.10;;;;;;;14.65;82.05;95505.03;106927;1275;22649;-81
2023/10/29 08:43:49;;;;;;;16.60;12.30;;;;;;;14.86;79.47;95506.05;106973;1274;24231;-82
2023/10/29 08:46:17;;;;;;;5.70;2.20;;;;;;;15.14;76.37;95501.80;107185;1275;22526;-80
2023/10/29 08:48:46;;;;;;;6.70;2.50;;;;;;;15.42;71.34;95501.29;107065;1275;22531;-80
2023/10/29 08:51:15;;;;;;;4.80;1.40;;;;;;;15.65;69.19;95506.40;107124;1275;22516;-81
2023/10/29 08:53:43;;;;;;;3.40;1.50;;;;;;;15.87;67.70;95505.72;107004;1275;24346;-83
2023/10/29 08:56:12;;;;;;;4.60;1.90;;;;;;;16.06;66.62;95500.70;106951;1274;22619;-80
2023/10/29 08:58:41;;;;;;;7.10;3.50;;;;;;;16.16;66.70;95508.05;107094;1273;22521;-80
2023/10/29 09:01:12;;;;;;;5.80;1.50;;;;;;;16.24;64.88;95512.17;107066;1275;22535;-82
2023/10/29 09:03:40;;;;;;;4.00;1.60;;;;;;;16.33;62.50;95512.70;107038;1274;24279;-79
2023/10/29 09:06:09;;;;;;;3.70;1.30;;;;;;;16.40;61.74;95513.09;107087;1275;23897;-80
2023/10/29 09:08:37;;;;;;;3.00;1.40;;;;;;;16.38;61.37;95515.48;107062;1274;25341;-79
2023/10/29 09:11:06;;;;;;;3.40;1.30;;;;;;;16.39;61.10;95516.17;106984;1275;23084;-81
2023/10/29 09:13:34;;;;;;;3.10;1.20;;;;;;;16.53;61.85;95519.84;107080;1275;22528;-79
2023/10/29 09:16:02;;;;;;;4.00;1.20;;;;;;;16.64;61.61;95518.27;106926;1275;23926;-81
2023/10/29 09:18:30;;;;;;;1.30;1.00;;;;;;;16.70;61.36;95516.41;106818;1274;22521;-80
2023/10/29 09:20:59;;;;;;;2.60;1.20;;;;;;;16.84;60.97;95517.40;107062;1275;22642;-80
2023/10/29 09:23:29;;;;;;;3.80;1.30;;;;;;;16.91;61.57;95514.10;107030;1275;22599;-80
2023/10/29 09:25:57;;;;;;;4.80;2.10;;;;;;;17.22;61.45;95509.11;106917;1275;22645;-79
2023/10/29 09:28:26;;;;;;;5.30;1.80;;;;;;;17.56;60.04;95504.88;106715;1275;22766;-80
2023/10/29 09:30:55;;;;;;;4.10;1.20;;;;;;;17.88;61.21;95505.67;106646;1275;25370;-79
2023/10/29 09:33:23;;;;;;;6.00;1.40;;;;;;;18.17;61.41;95507.83;106668;1253;25551;-80
2023/10/29 09:35:51;;;;;;;3.40;1.10;;;;;;;18.41;60.50;95506.29;106687;1275;22524;-78
2023/10/29 09:38:20;;;;;;;5.00;1.10;;;;;;;18.57;58.16;95507.75;106730;1275;23920;-80
2023/10/29 09:40:51;;;;;;;4.20;1.20;;;;;;;18.66;56.58;95509.27;106725;1274;22619;-80
2023/10/29 09:43:27;;;;;;;4.80;0.90;;;;;;;18.81;55.60;95507.27;106702;1275;23933;-79
2023/10/29 09:45:56;;;;;;;3.90;0.90;;;;;;;18.65;53.29;95505.95;106710;1275;25383;-79
2023/10/29 09:48:25;;;;;;;3.20;0.90;;;;;;;18.39;50.19;95506.70;106680;1275;22759;-80
2023/10/29 09:50:54;;;;;;;4.60;0.70;;;;;;;18.28;50.83;95508.02;106611;1275;22649;-80
2023/10/29 09:53:24;;;;;;;3.10;0.90;;;;;;;18.30;50.83;95509.52;106741;1275;22526;-78
2023/10/29 09:55:54;;;;;;;2.90;0.70;;;;;;;18.30;52.24;95514.29;106696;1275;25627;-79
2023/10/29 09:58:24;;;;;;;6.40;0.70;;;;;;;18.28;50.34;95517.98;106658;1274;22801;-80
2023/10/29 10:00:53;;;;;;;3.30;0.80;;;;;;;18.37;50.32;95522.48;106711;1275;22529;-79
2023/10/29 10:03:24;;;;;;;2.80;0.80;;;;;;;18.66;49.94;95520.84;106823;1274;22642;-81
2023/10/29 10:05:54;;;;;;;3.10;0.70;;;;;;;19.01;46.61;95520.65;106657;1274;22529;-81
2023/10/29 10:08:26;;;;;;;3.20;0.90;;;;;;;19.40;46.96;95517.65;106689;1274;24277;-82
2023/10/29 10:10:56;;;;;;;1.40;0.60;;;;;;;19.50;44.81;95511.60;106659;1274;24209;-80
2023/10/29 10:13:41;;;;;;;7.00;1.10;;;;;;;19.30;43.86;95516.98;106850;1275;22737;-79
2023/10/29 10:16:12;;;;;;;2.80;0.60;;;;;;;19.29;43.42;95507.23;107112;1274;22615;-79
2023/10/29 10:18:59;;;;;;;3.00;0.60;;;;;;;19.72;45.05;95509.30;107049;1274;25770;-82
2023/10/29 10:21:40;;;;;;;6.00;2.30;;;;;;;20.24;41.21;95501.73;106700;1274;22642;-81
2023/10/29 10:24:09;;;;;;;2.70;1.40;;;;;;;20.46;40.20;95502.23;106872;1274;22540;-79
2023/10/29 10:26:38;;;;;;;6.80;1.30;;;;;;;20.84;38.81;95497.52;106708;1275;22549;-80
2023/10/29 10:29:09;;;;;;;3.70;1.60;;;;;;;20.88;38.18;95498.46;106767;1274;25434;-80
2023/10/29 10:31:37;;;;;;;9.80;5.50;;;;;;;20.61;38.95;95499.03;106837;1275;23883;-80
2023/10/29 10:34:26;;;;;;;6.00;2.90;;;;;;;20.79;39.89;95495.11;106639;1274;22537;-82
2023/10/29 10:37:02;;;;;;;3.70;1.10;;;;;;;21.14;39.28;95493.12;106630;1275;25488;-80
2023/10/29 10:39:31;;;;;;;3.90;0.70;;;;;;;21.42;39.88;95499.31;106665;1274;24236;-81
2023/10/29 10:42:02;;;;;;;3.00;0.70;;;;;;;21.69;38.53;95491.70;106679;1275;23891;-79
2023/10/29 10:44:31;;;;;;;1.70;0.70;;;;;;;22.01;39.40;95485.30;106762;1275;24068;-80
2023/10/29 10:47:02;;;;;;;4.30;0.80;;;;;;;22.39;37.85;95491.65;106714;1275;24247;-81
2023/10/29 10:49:34;;;;;;;2.20;0.50;;;;;;;22.68;36.24;95490.55;106745;1275;22549;-80
2023/10/29 10:52:04;;;;;;;3.60;0.70;;;;;;;22.88;35.08;95493.64;106887;1275;24413;-81
2023/10/29 10:54:32;;;;;;;2.00;0.50;;;;;;;22.95;34.51;95491.63;106695;1275;25505;-79
2023/10/29 10:57:04;;;;;;;2.20;0.70;;;;;;;22.98;34.79;95490.52;106656;1275;24234;-80
2023/10/29 10:59:35;;;;;;;1.00;0.40;;;;;;;23.24;33.89;95487.64;106694;1275;25424;-80
2023/10/29 11:02:07;;;;;;;1.40;0.50;;;;;;;23.57;34.13;95483.48;106620;1275;22643;-78
2023/10/29 11:04:36;;;;;;;1.30;0.60;;;;;;;23.85;32.72;95484.16;106674;1274;22655;-81
2023/10/29 11:07:05;;;;;;;1.90;0.60;;;;;;;23.66;32.33;95483.70;106498;1275;25257;-81
2023/10/29 11:09:33;;;;;;;2.70;0.80;;;;;;;23.62;32.64;95486.34;106633;1275;22583;-79
2023/10/29 11:12:01;;;;;;;3.10;0.70;;;;;;;23.80;32.93;95488.31;106749;1256;22536;-80
2023/10/29 11:14:30;;;;;;;3.10;0.70;;;;;;;24.22;33.77;95486.16;106678;1275;22551;-81
2023/10/29 11:16:59;;;;;;;1.10;0.60;;;;;;;24.37;32.34;95490.62;106661;1275;22525;-79
2023/10/29 11:19:47;;;;;;;1.60;0.60;;;;;;;24.55;33.68;95491.42;106726;1275;25483;-80
2023/10/29 11:22:22;;;;;;;3.10;0.80;;;;;;;24.93;32.21;95492.84;106789;1275;22533;-80
2023/10/29 11:25:09;;;;;;;2.10;0.60;;;;;;;24.98;32.50;95494.79;106655;1275;22529;-81
2023/10/29 11:27:39;;;;;;;3.60;0.80;;;;;;;25.02;31.10;95491.46;106673;1274;24288;-81
2023/10/29 11:30:14;;;;;;;8.10;0.90;;;;;;;24.83;31.56;95490.72;106699;1275;24404;-80
2023/10/29 11:32:45;;;;;;;4.60;0.50;;;;;;;25.06;32.25;95489.13;106802;1274;22547;-81
2023/10/29 11:35:19;;;;;;;1.20;0.50;;;;;;;25.16;30.90;95491.83;106692;1275;25303;-81